sensor_id;sensor_type;location;lat;lon;timestamp;P1;durP1;ratioP1;P2;durP2;ratioP2
25609;SDS011;13479;49.044;8.716;2024-02-16T00:01:13;12.45;;;4.43;;
25609;SDS011;13479;49.044;8.716;2024-02-16T00:03:39;10.98;;;4.20;;
25609;SDS011;13479;49.044;8.716;2024-02-16T00:06:04;8.95;;;4.35;;
25609;SDS011;13479;49.044;8.716;2024-02-16T00:08:30;11.10;;;4.60;;
25609;SDS011;13479;49.044;8.716;2024-02-16T00:10:55;15.02;;;5.43;;
25609;SDS011;13479;49.044;8.716;2024-02-16T00:13:20;10.40;;;4.60;;
25609;SDS011;13479;49.044;8.716;2024-02-16T00:15:46;9.52;;;4.38;;
25609;SDS011;13479;49.044;8.716;2024-02-16T00:18:12;8.85;;;4.30;;
25609;SDS011;13479;49.044;8.716;2024-02-16T00:20:37;11.23;;;4.85;;
25609;SDS011;13479;49.044;8.716;2024-02-16T00:23:03;7.35;;;3.95;;
25609;SDS011;13479;49.044;8.716;2024-02-16T00:25:28;8.88;;;3.70;;
25609;SDS011;13479;49.044;8.716;2024-02-16T00:27:54;6.50;;;3.30;;
25609;SDS011;13479;49.044;8.716;2024-02-16T00:30:19;8.95;;;4.00;;
25609;SDS011;13479;49.044;8.716;2024-02-16T00:32:45;8.80;;;3.75;;
25609;SDS011;13479;49.044;8.716;2024-02-16T00:35:11;8.88;;;3.90;;
25609;SDS011;13479;49.044;8.716;2024-02-16T00:37:42;12.13;;;3.67;;
25609;SDS011;13479;49.044;8.716;2024-02-16T00:40:08;8.98;;;3.95;;
25609;SDS011;13479;49.044;8.716;2024-02-16T00:42:34;10.60;;;3.72;;
25609;SDS011;13479;49.044;8.716;2024-02-16T00:44:59;9.20;;;4.35;;
25609;SDS011;13479;49.044;8.716;2024-02-16T00:47:25;12.35;;;4.63;;
25609;SDS011;13479;49.044;8.716;2024-02-16T00:49:52;7.72;;;4.20;;
25609;SDS011;13479;49.044;8.716;2024-02-16T00:52:17;8.57;;;3.63;;
25609;SDS011;13479;49.044;8.716;2024-02-16T00:54:42;8.77;;;3.53;;
25609;SDS011;13479;49.044;8.716;2024-02-16T00:57:07;10.23;;;3.90;;
25609;SDS011;13479;49.044;8.716;2024-02-16T00:59:33;11.07;;;3.88;;
25609;SDS011;13479;49.044;8.716;2024-02-16T01:01:58;7.78;;;3.70;;
25609;SDS011;13479;49.044;8.716;2024-02-16T01:04:23;8.43;;;3.35;;
25609;SDS011;13479;49.044;8.716;2024-02-16T01:06:48;10.35;;;3.65;;
25609;SDS011;13479;49.044;8.716;2024-02-16T01:09:15;8.70;;;3.58;;
25609;SDS011;13479;49.044;8.716;2024-02-16T01:11:41;6.20;;;3.47;;
25609;SDS011;13479;49.044;8.716;2024-02-16T01:14:07;5.53;;;3.28;;
25609;SDS011;13479;49.044;8.716;2024-02-16T01:16:32;5.75;;;3.15;;
25609;SDS011;13479;49.044;8.716;2024-02-16T01:18:57;8.48;;;3.88;;
25609;SDS011;13479;49.044;8.716;2024-02-16T01:21:23;10.70;;;3.60;;
25609;SDS011;13479;49.044;8.716;2024-02-16T01:23:48;7.43;;;3.42;;
25609;SDS011;13479;49.044;8.716;2024-02-16T01:26:13;7.10;;;3.40;;
25609;SDS011;13479;49.044;8.716;2024-02-16T01:28:39;6.85;;;3.42;;
25609;SDS011;13479;49.044;8.716;2024-02-16T01:31:04;9.07;;;3.70;;
25609;SDS011;13479;49.044;8.716;2024-02-16T01:33:29;7.45;;;3.17;;
25609;SDS011;13479;49.044;8.716;2024-02-16T01:35:54;6.53;;;3.80;;
25609;SDS011;13479;49.044;8.716;2024-02-16T01:38:20;10.10;;;4.20;;
25609;SDS011;13479;49.044;8.716;2024-02-16T01:40:47;6.65;;;3.15;;
25609;SDS011;13479;49.044;8.716;2024-02-16T01:43:12;10.23;;;4.15;;
25609;SDS011;13479;49.044;8.716;2024-02-16T01:45:38;10.70;;;4.15;;
25609;SDS011;13479;49.044;8.716;2024-02-16T01:48:03;9.77;;;4.22;;
25609;SDS011;13479;49.044;8.716;2024-02-16T01:50:29;8.05;;;3.90;;
25609;SDS011;13479;49.044;8.716;2024-02-16T01:52:55;8.50;;;3.92;;
25609;SDS011;13479;49.044;8.716;2024-02-16T01:55:20;7.60;;;3.55;;
25609;SDS011;13479;49.044;8.716;2024-02-16T01:57:46;6.72;;;3.45;;
25609;SDS011;13479;49.044;8.716;2024-02-16T02:00:13;7.40;;;3.30;;
25609;SDS011;13479;49.044;8.716;2024-02-16T02:02:46;5.57;;;2.88;;
25609;SDS011;13479;49.044;8.716;2024-02-16T02:05:11;6.32;;;2.88;;
25609;SDS011;13479;49.044;8.716;2024-02-16T02:07:37;6.20;;;3.10;;
25609;SDS011;13479;49.044;8.716;2024-02-16T02:10:03;7.82;;;2.90;;
25609;SDS011;13479;49.044;8.716;2024-02-16T02:12:28;5.10;;;2.72;;
25609;SDS011;13479;49.044;8.716;2024-02-16T02:14:54;5.47;;;2.60;;
25609;SDS011;13479;49.044;8.716;2024-02-16T02:17:19;4.95;;;2.58;;
25609;SDS011;13479;49.044;8.716;2024-02-16T02:19:45;5.72;;;3.08;;
25609;SDS011;13479;49.044;8.716;2024-02-16T02:22:17;5.72;;;2.90;;
25609;SDS011;13479;49.044;8.716;2024-02-16T02:24:43;6.50;;;2.97;;
25609;SDS011;13479;49.044;8.716;2024-02-16T02:27:10;8.13;;;3.33;;
25609;SDS011;13479;49.044;8.716;2024-02-16T02:29:35;7.32;;;3.05;;
25609;SDS011;13479;49.044;8.716;2024-02-16T02:32:01;9.98;;;3.95;;
25609;SDS011;13479;49.044;8.716;2024-02-16T02:34:26;9.57;;;4.63;;
25609;SDS011;13479;49.044;8.716;2024-02-16T02:36:51;10.65;;;4.95;;
25609;SDS011;13479;49.044;8.716;2024-02-16T02:39:17;14.57;;;5.38;;
25609;SDS011;13479;49.044;8.716;2024-02-16T02:41:42;11.20;;;5.05;;
25609;SDS011;13479;49.044;8.716;2024-02-16T02:44:08;10.52;;;4.40;;
25609;SDS011;13479;49.044;8.716;2024-02-16T02:46:34;9.30;;;3.95;;
25609;SDS011;13479;49.044;8.716;2024-02-16T02:48:59;8.32;;;3.58;;
25609;SDS011;13479;49.044;8.716;2024-02-16T02:51:25;9.45;;;4.20;;
25609;SDS011;13479;49.044;8.716;2024-02-16T02:53:51;7.20;;;3.20;;
25609;SDS011;13479;49.044;8.716;2024-02-16T02:56:17;8.35;;;3.80;;
25609;SDS011;13479;49.044;8.716;2024-02-16T02:58:43;6.35;;;3.40;;
25609;SDS011;13479;49.044;8.716;2024-02-16T03:01:08;9.88;;;4.30;;
25609;SDS011;13479;49.044;8.716;2024-02-16T03:03:34;11.95;;;4.05;;
25609;SDS011;13479;49.044;8.716;2024-02-16T03:05:59;8.93;;;4.07;;
25609;SDS011;13479;49.044;8.716;2024-02-16T03:08:24;7.72;;;3.63;;
25609;SDS011;13479;49.044;8.716;2024-02-16T03:10:50;8.15;;;3.40;;
25609;SDS011;13479;49.044;8.716;2024-02-16T03:13:15;6.35;;;3.17;;
25609;SDS011;13479;49.044;8.716;2024-02-16T03:15:43;5.93;;;3.10;;
25609;SDS011;13479;49.044;8.716;2024-02-16T03:18:08;9.65;;;3.75;;
25609;SDS011;13479;49.044;8.716;2024-02-16T03:20:34;7.00;;;3.50;;
25609;SDS011;13479;49.044;8.716;2024-02-16T03:23:00;10.32;;;3.95;;
25609;SDS011;13479;49.044;8.716;2024-02-16T03:25:25;10.00;;;4.32;;
25609;SDS011;13479;49.044;8.716;2024-02-16T03:27:51;7.47;;;4.13;;
25609;SDS011;13479;49.044;8.716;2024-02-16T03:30:18;9.45;;;4.53;;
25609;SDS011;13479;49.044;8.716;2024-02-16T03:32:47;11.27;;;5.20;;
25609;SDS011;13479;49.044;8.716;2024-02-16T03:35:16;10.60;;;4.80;;
25609;SDS011;13479;49.044;8.716;2024-02-16T03:37:41;7.60;;;3.95;;
25609;SDS011;13479;49.044;8.716;2024-02-16T03:40:07;8.65;;;4.45;;
25609;SDS011;13479;49.044;8.716;2024-02-16T03:42:34;9.95;;;4.28;;
25609;SDS011;13479;49.044;8.716;2024-02-16T03:45:00;7.28;;;3.95;;
25609;SDS011;13479;49.044;8.716;2024-02-16T03:47:25;7.57;;;3.70;;
25609;SDS011;13479;49.044;8.716;2024-02-16T03:49:51;9.82;;;4.10;;
25609;SDS011;13479;49.044;8.716;2024-02-16T03:52:16;7.95;;;3.90;;
25609;SDS011;13479;49.044;8.716;2024-02-16T03:54:42;9.73;;;3.85;;
25609;SDS011;13479;49.044;8.716;2024-02-16T03:57:08;7.60;;;3.80;;
25609;SDS011;13479;49.044;8.716;2024-02-16T03:59:36;10.70;;;3.80;;
25609;SDS011;13479;49.044;8.716;2024-02-16T04:02:01;7.68;;;3.97;;
25609;SDS011;13479;49.044;8.716;2024-02-16T04:04:27;7.32;;;3.88;;
25609;SDS011;13479;49.044;8.716;2024-02-16T04:06:52;13.80;;;4.55;;
25609;SDS011;13479;49.044;8.716;2024-02-16T04:09:17;8.18;;;3.60;;
25609;SDS011;13479;49.044;8.716;2024-02-16T04:11:42;9.48;;;3.83;;
25609;SDS011;13479;49.044;8.716;2024-02-16T04:14:09;6.53;;;3.28;;
25609;SDS011;13479;49.044;8.716;2024-02-16T04:16:34;8.35;;;3.97;;
25609;SDS011;13479;49.044;8.716;2024-02-16T04:19:00;9.18;;;3.60;;
25609;SDS011;13479;49.044;8.716;2024-02-16T04:21:25;11.63;;;4.65;;
25609;SDS011;13479;49.044;8.716;2024-02-16T04:23:50;8.23;;;4.07;;
25609;SDS011;13479;49.044;8.716;2024-02-16T04:26:15;8.93;;;4.22;;
25609;SDS011;13479;49.044;8.716;2024-02-16T04:28:41;8.30;;;4.35;;
25609;SDS011;13479;49.044;8.716;2024-02-16T04:31:06;8.40;;;4.53;;
25609;SDS011;13479;49.044;8.716;2024-02-16T04:33:31;8.85;;;4.32;;
25609;SDS011;13479;49.044;8.716;2024-02-16T04:35:56;9.68;;;4.22;;
25609;SDS011;13479;49.044;8.716;2024-02-16T04:38:22;7.47;;;4.22;;
25609;SDS011;13479;49.044;8.716;2024-02-16T04:40:47;10.63;;;4.68;;
25609;SDS011;13479;49.044;8.716;2024-02-16T04:43:12;8.35;;;4.40;;
25609;SDS011;13479;49.044;8.716;2024-02-16T04:45:38;6.25;;;4.07;;
25609;SDS011;13479;49.044;8.716;2024-02-16T04:48:06;11.07;;;5.05;;
25609;SDS011;13479;49.044;8.716;2024-02-16T04:50:32;11.77;;;5.03;;
25609;SDS011;13479;49.044;8.716;2024-02-16T04:52:58;10.38;;;4.60;;
25609;SDS011;13479;49.044;8.716;2024-02-16T04:55:24;9.90;;;4.93;;
25609;SDS011;13479;49.044;8.716;2024-02-16T04:57:50;7.88;;;4.55;;
25609;SDS011;13479;49.044;8.716;2024-02-16T05:00:16;8.57;;;4.43;;
25609;SDS011;13479;49.044;8.716;2024-02-16T05:02:41;7.47;;;4.30;;
25609;SDS011;13479;49.044;8.716;2024-02-16T05:05:07;10.98;;;4.38;;
25609;SDS011;13479;49.044;8.716;2024-02-16T05:07:32;10.13;;;4.72;;
25609;SDS011;13479;49.044;8.716;2024-02-16T05:09:58;9.73;;;4.80;;
25609;SDS011;13479;49.044;8.716;2024-02-16T05:12:24;9.48;;;4.55;;
25609;SDS011;13479;49.044;8.716;2024-02-16T05:14:50;11.43;;;4.95;;
25609;SDS011;13479;49.044;8.716;2024-02-16T05:17:15;11.50;;;4.90;;
25609;SDS011;13479;49.044;8.716;2024-02-16T05:19:41;9.07;;;4.88;;
25609;SDS011;13479;49.044;8.716;2024-02-16T05:22:06;12.20;;;5.90;;
25609;SDS011;13479;49.044;8.716;2024-02-16T05:24:31;12.65;;;5.45;;
25609;SDS011;13479;49.044;8.716;2024-02-16T05:26:57;7.97;;;4.20;;
25609;SDS011;13479;49.044;8.716;2024-02-16T05:29:23;9.35;;;4.20;;
25609;SDS011;13479;49.044;8.716;2024-02-16T05:31:50;8.43;;;4.50;;
25609;SDS011;13479;49.044;8.716;2024-02-16T05:34:16;15.10;;;7.55;;
25609;SDS011;13479;49.044;8.716;2024-02-16T05:36:41;15.73;;;6.80;;
25609;SDS011;13479;49.044;8.716;2024-02-16T05:39:07;14.23;;;6.88;;
25609;SDS011;13479;49.044;8.716;2024-02-16T05:41:45;12.10;;;5.95;;
25609;SDS011;13479;49.044;8.716;2024-02-16T05:44:11;15.43;;;4.28;;
25609;SDS011;13479;49.044;8.716;2024-02-16T05:46:36;15.32;;;6.05;;
25609;SDS011;13479;49.044;8.716;2024-02-16T05:49:03;10.68;;;4.97;;
25609;SDS011;13479;49.044;8.716;2024-02-16T05:51:34;11.80;;;5.57;;
25609;SDS011;13479;49.044;8.716;2024-02-16T05:54:00;15.45;;;6.82;;
25609;SDS011;13479;49.044;8.716;2024-02-16T05:56:26;7.18;;;4.10;;
25609;SDS011;13479;49.044;8.716;2024-02-16T05:58:53;10.73;;;5.05;;
25609;SDS011;13479;49.044;8.716;2024-02-16T06:01:18;10.25;;;4.70;;
25609;SDS011;13479;49.044;8.716;2024-02-16T06:03:43;11.30;;;4.45;;
25609;SDS011;13479;49.044;8.716;2024-02-16T06:06:09;8.85;;;5.22;;
25609;SDS011;13479;49.044;8.716;2024-02-16T06:08:34;12.02;;;5.50;;
25609;SDS011;13479;49.044;8.716;2024-02-16T06:10:59;9.75;;;5.57;;
25609;SDS011;13479;49.044;8.716;2024-02-16T06:13:27;10.55;;;4.50;;
25609;SDS011;13479;49.044;8.716;2024-02-16T06:15:52;12.45;;;4.55;;
25609;SDS011;13479;49.044;8.716;2024-02-16T06:18:17;9.00;;;4.00;;
25609;SDS011;13479;49.044;8.716;2024-02-16T06:20:43;11.00;;;4.78;;
25609;SDS011;13479;49.044;8.716;2024-02-16T06:23:08;9.73;;;3.90;;
25609;SDS011;13479;49.044;8.716;2024-02-16T06:25:34;10.32;;;4.25;;
25609;SDS011;13479;49.044;8.716;2024-02-16T06:27:59;7.07;;;3.60;;
25609;SDS011;13479;49.044;8.716;2024-02-16T06:30:24;9.93;;;4.47;;
25609;SDS011;13479;49.044;8.716;2024-02-16T06:32:49;9.35;;;3.83;;
25609;SDS011;13479;49.044;8.716;2024-02-16T06:35:14;10.50;;;3.78;;
25609;SDS011;13479;49.044;8.716;2024-02-16T06:37:40;10.95;;;3.78;;
25609;SDS011;13479;49.044;8.716;2024-02-16T06:40:08;7.57;;;3.60;;
25609;SDS011;13479;49.044;8.716;2024-02-16T06:42:37;7.30;;;3.17;;
25609;SDS011;13479;49.044;8.716;2024-02-16T06:45:03;7.88;;;3.33;;
25609;SDS011;13479;49.044;8.716;2024-02-16T06:47:30;6.20;;;3.67;;
25609;SDS011;13479;49.044;8.716;2024-02-16T06:49:55;6.72;;;3.42;;
25609;SDS011;13479;49.044;8.716;2024-02-16T06:52:20;6.15;;;3.35;;
25609;SDS011;13479;49.044;8.716;2024-02-16T06:54:46;5.90;;;3.40;;
25609;SDS011;13479;49.044;8.716;2024-02-16T06:57:11;5.97;;;3.38;;
25609;SDS011;13479;49.044;8.716;2024-02-16T06:59:36;6.32;;;3.05;;
25609;SDS011;13479;49.044;8.716;2024-02-16T07:02:01;6.57;;;3.13;;
25609;SDS011;13479;49.044;8.716;2024-02-16T07:04:27;5.55;;;3.00;;
25609;SDS011;13479;49.044;8.716;2024-02-16T07:06:53;8.38;;;3.40;;
25609;SDS011;13479;49.044;8.716;2024-02-16T07:09:18;7.85;;;3.85;;
25609;SDS011;13479;49.044;8.716;2024-02-16T07:11:43;10.73;;;4.18;;
25609;SDS011;13479;49.044;8.716;2024-02-16T07:14:11;11.52;;;4.38;;
25609;SDS011;13479;49.044;8.716;2024-02-16T07:16:37;8.10;;;4.25;;
25609;SDS011;13479;49.044;8.716;2024-02-16T07:19:03;8.05;;;4.20;;
25609;SDS011;13479;49.044;8.716;2024-02-16T07:21:28;9.10;;;3.90;;
25609;SDS011;13479;49.044;8.716;2024-02-16T07:23:54;11.05;;;4.25;;
25609;SDS011;13479;49.044;8.716;2024-02-16T07:26:19;7.20;;;3.55;;
25609;SDS011;13479;49.044;8.716;2024-02-16T07:28:44;12.77;;;4.47;;
25609;SDS011;13479;49.044;8.716;2024-02-16T07:31:09;8.68;;;4.22;;
25609;SDS011;13479;49.044;8.716;2024-02-16T07:33:36;9.98;;;4.20;;
25609;SDS011;13479;49.044;8.716;2024-02-16T07:36:01;10.30;;;5.22;;
25609;SDS011;13479;49.044;8.716;2024-02-16T07:38:26;11.80;;;5.35;;
25609;SDS011;13479;49.044;8.716;2024-02-16T07:40:53;11.55;;;5.03;;
25609;SDS011;13479;49.044;8.716;2024-02-16T07:43:18;14.30;;;5.53;;
25609;SDS011;13479;49.044;8.716;2024-02-16T07:45:43;13.93;;;6.82;;
25609;SDS011;13479;49.044;8.716;2024-02-16T07:48:09;16.75;;;7.57;;
25609;SDS011;13479;49.044;8.716;2024-02-16T07:50:34;17.60;;;8.00;;
25609;SDS011;13479;49.044;8.716;2024-02-16T07:53:00;15.10;;;6.85;;
25609;SDS011;13479;49.044;8.716;2024-02-16T07:55:25;15.27;;;7.30;;
25609;SDS011;13479;49.044;8.716;2024-02-16T07:57:51;15.75;;;7.45;;
25609;SDS011;13479;49.044;8.716;2024-02-16T08:00:17;20.33;;;8.30;;
25609;SDS011;13479;49.044;8.716;2024-02-16T08:02:43;18.13;;;8.70;;
25609;SDS011;13479;49.044;8.716;2024-02-16T08:05:11;19.33;;;8.77;;
25609;SDS011;13479;49.044;8.716;2024-02-16T08:07:40;18.83;;;7.75;;
25609;SDS011;13479;49.044;8.716;2024-02-16T08:10:07;14.82;;;7.95;;
25609;SDS011;13479;49.044;8.716;2024-02-16T08:12:33;14.70;;;6.50;;
25609;SDS011;13479;49.044;8.716;2024-02-16T08:15:00;14.88;;;6.43;;
25609;SDS011;13479;49.044;8.716;2024-02-16T08:17:31;11.70;;;5.28;;
25609;SDS011;13479;49.044;8.716;2024-02-16T08:19:57;11.55;;;4.90;;
25609;SDS011;13479;49.044;8.716;2024-02-16T08:22:22;10.25;;;4.40;;
25609;SDS011;13479;49.044;8.716;2024-02-16T08:24:48;7.15;;;4.30;;
25609;SDS011;13479;49.044;8.716;2024-02-16T08:27:14;7.30;;;3.90;;
25609;SDS011;13479;49.044;8.716;2024-02-16T08:29:40;9.75;;;4.55;;
25609;SDS011;13479;49.044;8.716;2024-02-16T08:32:06;9.07;;;3.45;;
25609;SDS011;13479;49.044;8.716;2024-02-16T08:34:31;6.70;;;3.70;;
25609;SDS011;13479;49.044;8.716;2024-02-16T08:36:56;8.15;;;4.15;;
25609;SDS011;13479;49.044;8.716;2024-02-16T08:39:22;7.32;;;3.88;;
25609;SDS011;13479;49.044;8.716;2024-02-16T08:41:49;6.22;;;3.70;;
25609;SDS011;13479;49.044;8.716;2024-02-16T08:44:15;7.93;;;3.72;;
25609;SDS011;13479;49.044;8.716;2024-02-16T08:46:40;9.85;;;3.72;;
25609;SDS011;13479;49.044;8.716;2024-02-16T08:49:06;8.48;;;3.55;;
25609;SDS011;13479;49.044;8.716;2024-02-16T08:51:32;10.32;;;4.00;;
25609;SDS011;13479;49.044;8.716;2024-02-16T08:53:58;7.47;;;3.80;;
25609;SDS011;13479;49.044;8.716;2024-02-16T08:56:23;8.65;;;4.15;;
25609;SDS011;13479;49.044;8.716;2024-02-16T08:58:48;6.93;;;3.60;;
25609;SDS011;13479;49.044;8.716;2024-02-16T09:01:14;8.32;;;3.92;;
25609;SDS011;13479;49.044;8.716;2024-02-16T09:03:41;6.90;;;3.70;;
25609;SDS011;13479;49.044;8.716;2024-02-16T09:06:07;9.20;;;3.72;;
25609;SDS011;13479;49.044;8.716;2024-02-16T09:08:32;8.73;;;4.05;;
25609;SDS011;13479;49.044;8.716;2024-02-16T09:11:00;7.85;;;4.07;;
25609;SDS011;13479;49.044;8.716;2024-02-16T09:13:25;10.70;;;4.20;;
25609;SDS011;13479;49.044;8.716;2024-02-16T09:15:50;7.47;;;4.00;;
25609;SDS011;13479;49.044;8.716;2024-02-16T09:18:16;10.63;;;3.83;;
25609;SDS011;13479;49.044;8.716;2024-02-16T09:20:42;9.65;;;3.72;;
25609;SDS011;13479;49.044;8.716;2024-02-16T09:23:07;6.20;;;3.60;;
25609;SDS011;13479;49.044;8.716;2024-02-16T09:25:33;7.88;;;2.95;;
25609;SDS011;13479;49.044;8.716;2024-02-16T09:27:59;6.60;;;3.22;;
25609;SDS011;13479;49.044;8.716;2024-02-16T09:30:24;13.68;;;3.83;;
25609;SDS011;13479;49.044;8.716;2024-02-16T09:32:50;7.03;;;3.35;;
25609;SDS011;13479;49.044;8.716;2024-02-16T09:35:15;6.15;;;3.15;;
25609;SDS011;13479;49.044;8.716;2024-02-16T09:37:41;7.57;;;3.50;;
25609;SDS011;13479;49.044;8.716;2024-02-16T09:40:06;7.15;;;3.08;;
25609;SDS011;13479;49.044;8.716;2024-02-16T09:42:33;7.60;;;3.40;;
25609;SDS011;13479;49.044;8.716;2024-02-16T09:45:02;7.90;;;3.50;;
25609;SDS011;13479;49.044;8.716;2024-02-16T09:47:29;6.93;;;3.40;;
25609;SDS011;13479;49.044;8.716;2024-02-16T09:49:57;8.45;;;3.20;;
25609;SDS011;13479;49.044;8.716;2024-02-16T09:52:23;9.18;;;3.60;;
25609;SDS011;13479;49.044;8.716;2024-02-16T09:54:49;6.45;;;3.30;;
25609;SDS011;13479;49.044;8.716;2024-02-16T09:57:16;4.85;;;2.83;;
25609;SDS011;13479;49.044;8.716;2024-02-16T09:59:42;8.15;;;3.35;;
25609;SDS011;13479;49.044;8.716;2024-02-16T10:02:08;7.68;;;3.50;;
25609;SDS011;13479;49.044;8.716;2024-02-16T10:04:34;10.95;;;3.30;;
25609;SDS011;13479;49.044;8.716;2024-02-16T10:06:59;5.80;;;3.00;;
25609;SDS011;13479;49.044;8.716;2024-02-16T10:09:25;7.15;;;3.30;;
25609;SDS011;13479;49.044;8.716;2024-02-16T10:11:51;8.90;;;3.53;;
25609;SDS011;13479;49.044;8.716;2024-02-16T10:14:17;6.72;;;3.42;;
25609;SDS011;13479;49.044;8.716;2024-02-16T10:16:45;6.88;;;3.10;;
25609;SDS011;13479;49.044;8.716;2024-02-16T10:19:12;7.63;;;3.20;;
25609;SDS011;13479;49.044;8.716;2024-02-16T10:21:37;8.93;;;3.30;;
25609;SDS011;13479;49.044;8.716;2024-02-16T10:24:07;6.30;;;3.28;;
25609;SDS011;13479;49.044;8.716;2024-02-16T10:26:36;10.95;;;3.33;;
25609;SDS011;13479;49.044;8.716;2024-02-16T10:29:03;5.85;;;3.10;;
25609;SDS011;13479;49.044;8.716;2024-02-16T10:31:33;6.05;;;3.60;;
25609;SDS011;13479;49.044;8.716;2024-02-16T10:33:59;8.35;;;3.40;;
25609;SDS011;13479;49.044;8.716;2024-02-16T10:36:25;6.88;;;3.20;;
25609;SDS011;13479;49.044;8.716;2024-02-16T10:38:53;5.82;;;2.92;;
25609;SDS011;13479;49.044;8.716;2024-02-16T10:41:19;7.68;;;3.30;;
25609;SDS011;13479;49.044;8.716;2024-02-16T10:43:45;5.53;;;3.15;;
25609;SDS011;13479;49.044;8.716;2024-02-16T10:46:13;6.82;;;2.90;;
25609;SDS011;13479;49.044;8.716;2024-02-16T10:48:41;7.05;;;2.92;;
25609;SDS011;13479;49.044;8.716;2024-02-16T10:51:06;7.43;;;2.92;;
25609;SDS011;13479;49.044;8.716;2024-02-16T10:53:33;6.57;;;3.15;;
25609;SDS011;13479;49.044;8.716;2024-02-16T10:56:02;9.05;;;3.25;;
25609;SDS011;13479;49.044;8.716;2024-02-16T10:58:28;5.55;;;2.88;;
25609;SDS011;13479;49.044;8.716;2024-02-16T11:00:55;6.90;;;2.60;;
25609;SDS011;13479;49.044;8.716;2024-02-16T11:03:21;6.43;;;3.15;;
25609;SDS011;13479;49.044;8.716;2024-02-16T11:05:49;10.35;;;2.72;;
25609;SDS011;13479;49.044;8.716;2024-02-16T11:08:15;8.55;;;3.10;;
25609;SDS011;13479;49.044;8.716;2024-02-16T11:11:02;7.85;;;3.00;;
25609;SDS011;13479;49.044;8.716;2024-02-16T11:13:31;5.82;;;2.50;;
25609;SDS011;13479;49.044;8.716;2024-02-16T11:16:01;6.07;;;2.70;;
25609;SDS011;13479;49.044;8.716;2024-02-16T11:18:28;5.63;;;2.70;;
25609;SDS011;13479;49.044;8.716;2024-02-16T11:20:54;5.53;;;2.15;;
25609;SDS011;13479;49.044;8.716;2024-02-16T11:23:24;4.10;;;1.90;;
25609;SDS011;13479;49.044;8.716;2024-02-16T11:25:53;5.93;;;2.20;;
25609;SDS011;13479;49.044;8.716;2024-02-16T11:28:18;7.90;;;2.15;;
25609;SDS011;13479;49.044;8.716;2024-02-16T11:30:44;5.60;;;2.00;;
25609;SDS011;13479;49.044;8.716;2024-02-16T11:33:12;4.43;;;1.67;;
25609;SDS011;13479;49.044;8.716;2024-02-16T11:35:38;7.60;;;2.15;;
25609;SDS011;13479;49.044;8.716;2024-02-16T11:38:06;3.95;;;2.03;;
25609;SDS011;13479;49.044;8.716;2024-02-16T11:40:32;6.50;;;1.98;;
25609;SDS011;13479;49.044;8.716;2024-02-16T11:42:58;4.93;;;2.10;;
25609;SDS011;13479;49.044;8.716;2024-02-16T11:45:24;4.07;;;1.98;;
25609;SDS011;13479;49.044;8.716;2024-02-16T11:47:50;5.38;;;2.10;;
25609;SDS011;13479;49.044;8.716;2024-02-16T11:50:15;7.07;;;1.85;;
25609;SDS011;13479;49.044;8.716;2024-02-16T11:52:43;7.13;;;1.95;;
25609;SDS011;13479;49.044;8.716;2024-02-16T11:55:08;4.30;;;1.83;;
25609;SDS011;13479;49.044;8.716;2024-02-16T11:57:35;4.45;;;1.67;;
25609;SDS011;13479;49.044;8.716;2024-02-16T12:00:01;7.50;;;1.75;;
25609;SDS011;13479;49.044;8.716;2024-02-16T12:02:32;4.65;;;1.60;;
25609;SDS011;13479;49.044;8.716;2024-02-16T12:04:58;5.28;;;1.50;;
25609;SDS011;13479;49.044;8.716;2024-02-16T12:07:25;4.47;;;1.67;;
25609;SDS011;13479;49.044;8.716;2024-02-16T12:09:59;5.43;;;1.80;;
25609;SDS011;13479;49.044;8.716;2024-02-16T12:12:25;3.60;;;1.60;;
25609;SDS011;13479;49.044;8.716;2024-02-16T12:14:54;9.20;;;2.20;;
25609;SDS011;13479;49.044;8.716;2024-02-16T12:17:20;6.25;;;1.65;;
25609;SDS011;13479;49.044;8.716;2024-02-16T12:19:46;7.05;;;1.90;;
25609;SDS011;13479;49.044;8.716;2024-02-16T12:22:21;6.85;;;1.98;;
25609;SDS011;13479;49.044;8.716;2024-02-16T12:24:47;9.07;;;2.10;;
25609;SDS011;13479;49.044;8.716;2024-02-16T12:27:13;6.22;;;1.92;;
25609;SDS011;13479;49.044;8.716;2024-02-16T12:29:39;7.03;;;1.80;;
25609;SDS011;13479;49.044;8.716;2024-02-16T12:32:05;6.05;;;2.00;;
25609;SDS011;13479;49.044;8.716;2024-02-16T12:34:31;6.22;;;1.80;;
25609;SDS011;13479;49.044;8.716;2024-02-16T12:36:56;8.23;;;1.92;;
25609;SDS011;13479;49.044;8.716;2024-02-16T12:39:22;7.00;;;2.38;;
25609;SDS011;13479;49.044;8.716;2024-02-16T12:41:47;5.65;;;2.15;;
25609;SDS011;13479;49.044;8.716;2024-02-16T12:44:13;5.80;;;2.20;;
25609;SDS011;13479;49.044;8.716;2024-02-16T12:46:39;5.72;;;1.88;;
25609;SDS011;13479;49.044;8.716;2024-02-16T12:49:05;6.43;;;2.05;;
25609;SDS011;13479;49.044;8.716;2024-02-16T12:51:31;5.65;;;2.10;;
25609;SDS011;13479;49.044;8.716;2024-02-16T12:53:56;9.40;;;2.13;;
25609;SDS011;13479;49.044;8.716;2024-02-16T12:56:21;5.50;;;1.92;;
25609;SDS011;13479;49.044;8.716;2024-02-16T12:58:47;7.15;;;2.05;;
25609;SDS011;13479;49.044;8.716;2024-02-16T13:01:13;7.32;;;1.70;;
25609;SDS011;13479;49.044;8.716;2024-02-16T13:03:38;4.38;;;1.60;;
25609;SDS011;13479;49.044;8.716;2024-02-16T13:06:04;7.35;;;1.77;;
25609;SDS011;13479;49.044;8.716;2024-02-16T13:08:30;5.30;;;1.63;;
25609;SDS011;13479;49.044;8.716;2024-02-16T13:10:56;6.50;;;2.10;;
25609;SDS011;13479;49.044;8.716;2024-02-16T13:13:22;6.15;;;1.75;;
25609;SDS011;13479;49.044;8.716;2024-02-16T13:15:48;6.63;;;1.67;;
25609;SDS011;13479;49.044;8.716;2024-02-16T13:18:13;4.80;;;1.50;;
25609;SDS011;13479;49.044;8.716;2024-02-16T13:20:39;10.68;;;2.03;;
25609;SDS011;13479;49.044;8.716;2024-02-16T13:23:04;4.45;;;1.73;;
25609;SDS011;13479;49.044;8.716;2024-02-16T13:25:30;6.03;;;1.50;;
25609;SDS011;13479;49.044;8.716;2024-02-16T13:27:55;8.48;;;1.95;;
25609;SDS011;13479;49.044;8.716;2024-02-16T13:30:20;9.95;;;1.80;;
25609;SDS011;13479;49.044;8.716;2024-02-16T13:32:46;5.43;;;1.92;;
25609;SDS011;13479;49.044;8.716;2024-02-16T13:35:11;4.82;;;1.70;;
25609;SDS011;13479;49.044;8.716;2024-02-16T13:37:38;4.70;;;1.45;;
25609;SDS011;13479;49.044;8.716;2024-02-16T13:40:04;7.85;;;1.42;;
25609;SDS011;13479;49.044;8.716;2024-02-16T13:42:32;10.77;;;1.40;;
25609;SDS011;13479;49.044;8.716;2024-02-16T13:44:57;3.83;;;1.42;;
25609;SDS011;13479;49.044;8.716;2024-02-16T13:47:23;4.47;;;1.30;;
25609;SDS011;13479;49.044;8.716;2024-02-16T13:49:48;7.78;;;1.63;;
25609;SDS011;13479;49.044;8.716;2024-02-16T13:52:14;6.10;;;1.35;;
25609;SDS011;13479;49.044;8.716;2024-02-16T13:54:40;4.50;;;1.42;;
25609;SDS011;13479;49.044;8.716;2024-02-16T13:57:05;4.93;;;1.20;;
25609;SDS011;13479;49.044;8.716;2024-02-16T13:59:30;4.45;;;1.33;;
25609;SDS011;13479;49.044;8.716;2024-02-16T14:01:56;8.27;;;1.40;;
25609;SDS011;13479;49.044;8.716;2024-02-16T14:04:22;4.85;;;1.55;;
25609;SDS011;13479;49.044;8.716;2024-02-16T14:06:49;4.57;;;1.52;;
25609;SDS011;13479;49.044;8.716;2024-02-16T14:09:14;5.75;;;1.30;;
25609;SDS011;13479;49.044;8.716;2024-02-16T14:11:40;4.75;;;1.27;;
25609;SDS011;13479;49.044;8.716;2024-02-16T14:14:08;2.72;;;1.27;;
25609;SDS011;13479;49.044;8.716;2024-02-16T14:16:33;4.10;;;1.08;;
25609;SDS011;13479;49.044;8.716;2024-02-16T14:18:59;5.22;;;1.33;;
25609;SDS011;13479;49.044;8.716;2024-02-16T14:21:24;2.97;;;1.13;;
25609;SDS011;13479;49.044;8.716;2024-02-16T14:23:50;5.43;;;1.27;;
25609;SDS011;13479;49.044;8.716;2024-02-16T14:26:15;4.30;;;0.93;;
25609;SDS011;13479;49.044;8.716;2024-02-16T14:28:42;5.75;;;1.10;;
25609;SDS011;13479;49.044;8.716;2024-02-16T14:31:07;7.70;;;1.10;;
25609;SDS011;13479;49.044;8.716;2024-02-16T14:33:33;4.93;;;1.08;;
25609;SDS011;13479;49.044;8.716;2024-02-16T14:35:59;4.28;;;1.17;;
25609;SDS011;13479;49.044;8.716;2024-02-16T14:38:25;3.78;;;1.20;;